sensor_id;sensor_type;location;lat;lon;timestamp;temperature;humidity
56268;DHT22;42175;46.930;9.532;2023-01-04T00:01:05;23.00;40.50
56268;DHT22;42175;46.930;9.532;2023-01-04T00:03:32;23.00;40.50
56268;DHT22;42175;46.930;9.532;2023-01-04T00:06:00;23.10;40.30
56268;DHT22;42175;46.930;9.532;2023-01-04T00:08:26;23.00;40.20
56268;DHT22;42175;46.930;9.532;2023-01-04T00:10:52;23.10;40.30
56268;DHT22;42175;46.930;9.532;2023-01-04T00:13:18;23.10;40.20
56268;DHT22;42175;46.930;9.532;2023-01-04T00:15:43;23.10;39.90
56268;DHT22;42175;46.930;9.532;2023-01-04T00:18:09;23.20;39.70
56268;DHT22;42175;46.930;9.532;2023-01-04T00:20:35;23.20;39.60
56268;DHT22;42175;46.930;9.532;2023-01-04T00:23:00;23.10;39.50
56268;DHT22;42175;46.930;9.532;2023-01-04T00:25:26;23.10;39.60
56268;DHT22;42175;46.930;9.532;2023-01-04T00:27:52;23.10;39.80
56268;DHT22;42175;46.930;9.532;2023-01-04T00:30:18;23.10;39.90
56268;DHT22;42175;46.930;9.532;2023-01-04T00:32:44;23.00;39.90
56268;DHT22;42175;46.930;9.532;2023-01-04T00:35:11;23.00;39.90
56268;DHT22;42175;46.930;9.532;2023-01-04T00:37:36;23.00;39.90
56268;DHT22;42175;46.930;9.532;2023-01-04T00:40:02;23.10;39.80
56268;DHT22;42175;46.930;9.532;2023-01-04T00:42:28;23.10;39.80
56268;DHT22;42175;46.930;9.532;2023-01-04T00:44:54;23.10;39.80
56268;DHT22;42175;46.930;9.532;2023-01-04T00:47:20;23.10;39.50
56268;DHT22;42175;46.930;9.532;2023-01-04T00:49:45;23.10;39.50
56268;DHT22;42175;46.930;9.532;2023-01-04T00:52:11;23.10;39.40
56268;DHT22;42175;46.930;9.532;2023-01-04T00:54:36;23.10;39.40
56268;DHT22;42175;46.930;9.532;2023-01-04T00:57:02;23.00;39.40
56268;DHT22;42175;46.930;9.532;2023-01-04T00:59:29;23.00;39.40
56268;DHT22;42175;46.930;9.532;2023-01-04T01:01:56;23.00;39.40
56268;DHT22;42175;46.930;9.532;2023-01-04T01:04:22;23.00;39.50
56268;DHT22;42175;46.930;9.532;2023-01-04T01:06:48;23.00;39.60
56268;DHT22;42175;46.930;9.532;2023-01-04T01:09:15;23.00;39.50
56268;DHT22;42175;46.930;9.532;2023-01-04T01:11:41;23.00;39.30
56268;DHT22;42175;46.930;9.532;2023-01-04T01:14:11;23.10;39.30
56268;DHT22;42175;46.930;9.532;2023-01-04T01:16:38;23.00;39.30
56268;DHT22;42175;46.930;9.532;2023-01-04T01:19:03;23.10;39.10
56268;DHT22;42175;46.930;9.532;2023-01-04T01:21:29;23.10;38.90
56268;DHT22;42175;46.930;9.532;2023-01-04T01:23:57;23.20;38.80
56268;DHT22;42175;46.930;9.532;2023-01-04T01:26:24;23.10;38.90
56268;DHT22;42175;46.930;9.532;2023-01-04T01:28:50;23.10;39.00
56268;DHT22;42175;46.930;9.532;2023-01-04T01:31:25;23.00;39.00
56268;DHT22;42175;46.930;9.532;2023-01-04T01:33:53;23.10;38.90
56268;DHT22;42175;46.930;9.532;2023-01-04T01:36:20;23.00;38.90
56268;DHT22;42175;46.930;9.532;2023-01-04T01:38:46;23.00;39.00
56268;DHT22;42175;46.930;9.532;2023-01-04T01:41:32;23.00;38.90
56268;DHT22;42175;46.930;9.532;2023-01-04T01:47:01;23.00;39.00
56268;DHT22;42175;46.930;9.532;2023-01-04T01:49:33;23.00;39.50
56268;DHT22;42175;46.930;9.532;2023-01-04T01:52:06;22.90;39.60
56268;DHT22;42175;46.930;9.532;2023-01-04T01:54:38;23.00;39.40
56268;DHT22;42175;46.930;9.532;2023-01-04T01:57:07;23.00;39.70
56268;DHT22;42175;46.930;9.532;2023-01-04T01:59:36;23.00;38.90
56268;DHT22;42175;46.930;9.532;2023-01-04T02:02:03;23.00;38.90
56268;DHT22;42175;46.930;9.532;2023-01-04T02:04:29;23.00;39.00
56268;DHT22;42175;46.930;9.532;2023-01-04T02:06:56;23.00;39.00
56268;DHT22;42175;46.930;9.532;2023-01-04T02:09:24;23.00;39.00
56268;DHT22;42175;46.930;9.532;2023-01-04T02:11:49;23.00;38.90
56268;DHT22;42175;46.930;9.532;2023-01-04T02:14:17;23.10;38.70
56268;DHT22;42175;46.930;9.532;2023-01-04T02:17:36;23.10;38.60
56268;DHT22;42175;46.930;9.532;2023-01-04T02:31:27;23.00;38.50
56268;DHT22;42175;46.930;9.532;2023-01-04T02:37:02;22.90;39.30
56268;DHT22;42175;46.930;9.532;2023-01-04T02:39:36;22.90;38.80
56268;DHT22;42175;46.930;9.532;2023-01-04T02:45:19;23.00;38.80
56268;DHT22;42175;46.930;9.532;2023-01-04T02:47:46;23.00;38.80
56268;DHT22;42175;46.930;9.532;2023-01-04T02:53:17;22.90;38.90
56268;DHT22;42175;46.930;9.532;2023-01-04T03:10:48;22.90;39.20
56268;DHT22;42175;46.930;9.532;2023-01-04T03:13:31;22.90;38.90
56268;DHT22;42175;46.930;9.532;2023-01-04T03:16:12;23.00;38.70
56268;DHT22;42175;46.930;9.532;2023-01-04T03:18:43;23.00;38.50
56268;DHT22;42175;46.930;9.532;2023-01-04T03:21:11;23.00;38.40
56268;DHT22;42175;46.930;9.532;2023-01-04T03:23:38;23.00;38.20
56268;DHT22;42175;46.930;9.532;2023-01-04T03:26:27;23.00;38.20
56268;DHT22;42175;46.930;9.532;2023-01-04T03:29:29;23.00;38.20
56268;DHT22;42175;46.930;9.532;2023-01-04T03:32:21;22.90;38.40
56268;DHT22;42175;46.930;9.532;2023-01-04T03:35:09;22.80;38.60
56268;DHT22;42175;46.930;9.532;2023-01-04T03:38:16;22.80;39.00
56268;DHT22;42175;46.930;9.532;2023-01-04T03:41:22;22.90;38.80
56268;DHT22;42175;46.930;9.532;2023-01-04T03:47:28;23.00;38.30
56268;DHT22;42175;46.930;9.532;2023-01-04T03:50:24;23.00;38.20
56268;DHT22;42175;46.930;9.532;2023-01-04T03:52:52;23.00;38.10
56268;DHT22;42175;46.930;9.532;2023-01-04T03:55:20;22.90;38.10
56268;DHT22;42175;46.930;9.532;2023-01-04T03:57:47;22.90;38.30
56268;DHT22;42175;46.930;9.532;2023-01-04T04:00:16;22.90;38.10
56268;DHT22;42175;46.930;9.532;2023-01-04T04:02:45;23.00;38.00
56268;DHT22;42175;46.930;9.532;2023-01-04T04:05:18;23.00;37.70
56268;DHT22;42175;46.930;9.532;2023-01-04T04:08:04;22.90;37.80
56268;DHT22;42175;46.930;9.532;2023-01-04T04:10:49;22.90;37.80
56268;DHT22;42175;46.930;9.532;2023-01-04T04:13:15;22.90;37.70
56268;DHT22;42175;46.930;9.532;2023-01-04T04:15:40;23.00;37.70
56268;DHT22;42175;46.930;9.532;2023-01-04T04:18:06;23.00;37.60
56268;DHT22;42175;46.930;9.532;2023-01-04T04:20:32;22.90;38.00
56268;DHT22;42175;46.930;9.532;2023-01-04T04:22:58;22.90;37.50
56268;DHT22;42175;46.930;9.532;2023-01-04T04:25:23;22.90;37.50
56268;DHT22;42175;46.930;9.532;2023-01-04T04:27:49;22.90;37.50
56268;DHT22;42175;46.930;9.532;2023-01-04T04:30:15;22.90;37.40
56268;DHT22;42175;46.930;9.532;2023-01-04T04:32:41;22.90;37.30
56268;DHT22;42175;46.930;9.532;2023-01-04T04:35:07;22.90;37.30
56268;DHT22;42175;46.930;9.532;2023-01-04T04:37:33;22.90;37.30
56268;DHT22;42175;46.930;9.532;2023-01-04T04:40:00;22.90;37.30
56268;DHT22;42175;46.930;9.532;2023-01-04T04:42:26;22.90;37.30
56268;DHT22;42175;46.930;9.532;2023-01-04T04:44:51;22.90;37.30
56268;DHT22;42175;46.930;9.532;2023-01-04T04:47:17;22.90;37.20
56268;DHT22;42175;46.930;9.532;2023-01-04T04:49:43;22.90;37.10
56268;DHT22;42175;46.930;9.532;2023-01-04T04:52:08;22.90;37.10
56268;DHT22;42175;46.930;9.532;2023-01-04T04:54:34;22.80;37.10
56268;DHT22;42175;46.930;9.532;2023-01-04T04:57:00;22.80;37.10
56268;DHT22;42175;46.930;9.532;2023-01-04T04:59:26;22.80;37.20
56268;DHT22;42175;46.930;9.532;2023-01-04T05:01:51;22.80;37.10
56268;DHT22;42175;46.930;9.532;2023-01-04T05:04:17;22.90;37.10
56268;DHT22;42175;46.930;9.532;2023-01-04T05:06:48;22.80;37.30
56268;DHT22;42175;46.930;9.532;2023-01-04T05:09:14;22.80;37.20
56268;DHT22;42175;46.930;9.532;2023-01-04T05:11:41;22.70;37.20
56268;DHT22;42175;46.930;9.532;2023-01-04T05:14:26;22.80;37.20
56268;DHT22;42175;46.930;9.532;2023-01-04T05:16:52;22.80;37.00
56268;DHT22;42175;46.930;9.532;2023-01-04T05:19:18;22.80;37.10
56268;DHT22;42175;46.930;9.532;2023-01-04T05:21:43;22.70;37.20
56268;DHT22;42175;46.930;9.532;2023-01-04T05:24:12;22.80;37.30
56268;DHT22;42175;46.930;9.532;2023-01-04T05:26:38;22.70;37.20
56268;DHT22;42175;46.930;9.532;2023-01-04T05:29:04;22.80;37.40
56268;DHT22;42175;46.930;9.532;2023-01-04T05:31:30;22.70;37.50
56268;DHT22;42175;46.930;9.532;2023-01-04T05:33:56;22.70;37.30
56268;DHT22;42175;46.930;9.532;2023-01-04T05:36:22;22.80;37.10
56268;DHT22;42175;46.930;9.532;2023-01-04T05:38:47;22.80;37.00
56268;DHT22;42175;46.930;9.532;2023-01-04T05:41:14;22.90;36.90
56268;DHT22;42175;46.930;9.532;2023-01-04T05:43:58;22.80;36.70
56268;DHT22;42175;46.930;9.532;2023-01-04T05:46:24;22.80;36.50
56268;DHT22;42175;46.930;9.532;2023-01-04T05:48:50;22.80;36.40
56268;DHT22;42175;46.930;9.532;2023-01-04T05:51:15;22.80;36.40
56268;DHT22;42175;46.930;9.532;2023-01-04T05:53:41;22.80;36.80
56268;DHT22;42175;46.930;9.532;2023-01-04T05:56:07;22.70;36.90
56268;DHT22;42175;46.930;9.532;2023-01-04T05:58:33;22.70;36.90
56268;DHT22;42175;46.930;9.532;2023-01-04T06:00:58;22.70;37.20
56268;DHT22;42175;46.930;9.532;2023-01-04T06:03:24;22.70;37.10
56268;DHT22;42175;46.930;9.532;2023-01-04T06:05:50;22.80;36.90
56268;DHT22;42175;46.930;9.532;2023-01-04T06:08:16;22.80;36.70
56268;DHT22;42175;46.930;9.532;2023-01-04T06:10:42;22.80;36.60
56268;DHT22;42175;46.930;9.532;2023-01-04T06:13:07;22.80;36.50
56268;DHT22;42175;46.930;9.532;2023-01-04T06:15:34;22.80;36.50
56268;DHT22;42175;46.930;9.532;2023-01-04T06:17:59;22.80;36.50
56268;DHT22;42175;46.930;9.532;2023-01-04T06:20:25;22.70;36.70
56268;DHT22;42175;46.930;9.532;2023-01-04T06:22:50;22.70;37.70
56268;DHT22;42175;46.930;9.532;2023-01-04T06:25:16;22.70;37.80
56268;DHT22;42175;46.930;9.532;2023-01-04T06:27:42;22.70;37.70
56268;DHT22;42175;46.930;9.532;2023-01-04T06:30:08;22.70;37.70
56268;DHT22;42175;46.930;9.532;2023-01-04T06:32:34;22.70;37.60
56268;DHT22;42175;46.930;9.532;2023-01-04T06:35:00;22.70;37.70
56268;DHT22;42175;46.930;9.532;2023-01-04T06:37:26;22.70;37.90
56268;DHT22;42175;46.930;9.532;2023-01-04T06:39:52;22.70;38.00
56268;DHT22;42175;46.930;9.532;2023-01-04T06:42:18;22.70;37.50
56268;DHT22;42175;46.930;9.532;2023-01-04T06:45:02;22.80;37.50
56268;DHT22;42175;46.930;9.532;2023-01-04T06:47:28;22.80;37.40
56268;DHT22;42175;46.930;9.532;2023-01-04T06:49:54;22.80;37.30
56268;DHT22;42175;46.930;9.532;2023-01-04T06:52:19;22.70;37.30
56268;DHT22;42175;46.930;9.532;2023-01-04T06:54:45;22.70;37.10
56268;DHT22;42175;46.930;9.532;2023-01-04T06:57:12;22.70;37.30
56268;DHT22;42175;46.930;9.532;2023-01-04T06:59:37;22.70;37.20
56268;DHT22;42175;46.930;9.532;2023-01-04T07:02:03;22.70;37.20
56268;DHT22;42175;46.930;9.532;2023-01-04T07:04:29;22.70;37.20
56268;DHT22;42175;46.930;9.532;2023-01-04T07:06:55;22.70;37.20
56268;DHT22;42175;46.930;9.532;2023-01-04T07:09:22;22.70;37.30
56268;DHT22;42175;46.930;9.532;2023-01-04T07:11:47;22.80;37.40
56268;DHT22;42175;46.930;9.532;2023-01-04T07:14:13;22.70;37.50
56268;DHT22;42175;46.930;9.532;2023-01-04T07:16:39;22.80;37.00
56268;DHT22;42175;46.930;9.532;2023-01-04T07:19:07;22.70;36.90
56268;DHT22;42175;46.930;9.532;2023-01-04T07:21:33;22.70;36.70
56268;DHT22;42175;46.930;9.532;2023-01-04T07:23:58;22.70;36.80
56268;DHT22;42175;46.930;9.532;2023-01-04T07:26:24;22.70;36.90
56268;DHT22;42175;46.930;9.532;2023-01-04T07:28:50;22.80;36.90
56268;DHT22;42175;46.930;9.532;2023-01-04T07:31:34;22.80;36.90
56268;DHT22;42175;46.930;9.532;2023-01-04T07:33:59;22.80;36.90
56268;DHT22;42175;46.930;9.532;2023-01-04T07:36:25;22.70;36.70
56268;DHT22;42175;46.930;9.532;2023-01-04T07:38:50;22.80;36.70
56268;DHT22;42175;46.930;9.532;2023-01-04T07:41:16;22.70;36.70
56268;DHT22;42175;46.930;9.532;2023-01-04T07:43:42;22.70;36.80
56268;DHT22;42175;46.930;9.532;2023-01-04T07:46:07;22.70;36.60
56268;DHT22;42175;46.930;9.532;2023-01-04T07:48:33;22.70;36.90
56268;DHT22;42175;46.930;9.532;2023-01-04T07:50:59;22.70;37.20
56268;DHT22;42175;46.930;9.532;2023-01-04T07:53:25;22.70;37.50
56268;DHT22;42175;46.930;9.532;2023-01-04T07:55:57;22.60;37.50
56268;DHT22;42175;46.930;9.532;2023-01-04T07:58:24;22.70;37.60
56268;DHT22;42175;46.930;9.532;2023-01-04T08:00:50;22.70;37.60
56268;DHT22;42175;46.930;9.532;2023-01-04T08:03:16;22.70;37.50
56268;DHT22;42175;46.930;9.532;2023-01-04T08:05:41;22.70;37.50
56268;DHT22;42175;46.930;9.532;2023-01-04T08:08:07;22.70;37.50
56268;DHT22;42175;46.930;9.532;2023-01-04T08:10:33;22.70;37.40
56268;DHT22;42175;46.930;9.532;2023-01-04T08:12:59;22.70;37.50
56268;DHT22;42175;46.930;9.532;2023-01-04T08:15:25;22.70;37.50
56268;DHT22;42175;46.930;9.532;2023-01-04T08:17:51;22.70;37.50
56268;DHT22;42175;46.930;9.532;2023-01-04T08:20:17;22.70;37.50
56268;DHT22;42175;46.930;9.532;2023-01-04T08:22:43;22.70;37.60
56268;DHT22;42175;46.930;9.532;2023-01-04T08:25:09;22.70;37.60
56268;DHT22;42175;46.930;9.532;2023-01-04T08:27:35;22.70;37.60
56268;DHT22;42175;46.930;9.532;2023-01-04T08:30:00;22.70;37.60
56268;DHT22;42175;46.930;9.532;2023-01-04T08:32:26;22.80;37.90
56268;DHT22;42175;46.930;9.532;2023-01-04T08:34:52;22.70;37.60
56268;DHT22;42175;46.930;9.532;2023-01-04T08:37:19;22.70;37.90
56268;DHT22;42175;46.930;9.532;2023-01-04T08:39:44;22.80;38.20
56268;DHT22;42175;46.930;9.532;2023-01-04T08:42:10;22.80;38.50
56268;DHT22;42175;46.930;9.532;2023-01-04T08:44:36;22.80;38.40
56268;DHT22;42175;46.930;9.532;2023-01-04T08:47:01;22.80;38.40
56268;DHT22;42175;46.930;9.532;2023-01-04T08:49:27;22.80;38.40
56268;DHT22;42175;46.930;9.532;2023-01-04T08:51:53;22.80;38.50
56268;DHT22;42175;46.930;9.532;2023-01-04T08:54:18;22.80;38.80
56268;DHT22;42175;46.930;9.532;2023-01-04T08:56:44;22.80;38.70
56268;DHT22;42175;46.930;9.532;2023-01-04T08:59:11;22.80;38.90
56268;DHT22;42175;46.930;9.532;2023-01-04T09:01:37;22.80;39.00
56268;DHT22;42175;46.930;9.532;2023-01-04T09:04:03;22.90;39.10
56268;DHT22;42175;46.930;9.532;2023-01-04T09:06:30;22.90;39.10
56268;DHT22;42175;46.930;9.532;2023-01-04T09:08:56;22.90;39.10
56268;DHT22;42175;46.930;9.532;2023-01-04T09:11:23;22.90;39.10
56268;DHT22;42175;46.930;9.532;2023-01-04T09:13:54;22.90;39.30
56268;DHT22;42175;46.930;9.532;2023-01-04T09:16:20;22.90;39.40
56268;DHT22;42175;46.930;9.532;2023-01-04T09:18:46;22.90;39.60
56268;DHT22;42175;46.930;9.532;2023-01-04T09:21:19;22.90;39.70
56268;DHT22;42175;46.930;9.532;2023-01-04T09:23:46;22.90;39.70
56268;DHT22;42175;46.930;9.532;2023-01-04T09:26:14;22.90;39.80
56268;DHT22;42175;46.930;9.532;2023-01-04T09:28:41;22.90;39.80
56268;DHT22;42175;46.930;9.532;2023-01-04T09:31:08;23.00;40.00
56268;DHT22;42175;46.930;9.532;2023-01-04T09:33:35;23.00;40.10
56268;DHT22;42175;46.930;9.532;2023-01-04T09:36:02;22.90;40.10
56268;DHT22;42175;46.930;9.532;2023-01-04T09:38:28;23.00;40.20
56268;DHT22;42175;46.930;9.532;2023-01-04T09:41:04;23.00;40.20
56268;DHT22;42175;46.930;9.532;2023-01-04T09:49:02;23.10;41.10
56268;DHT22;42175;46.930;9.532;2023-01-04T09:51:33;23.00;40.50
56268;DHT22;42175;46.930;9.532;2023-01-04T09:54:05;23.10;40.50
56268;DHT22;42175;46.930;9.532;2023-01-04T09:56:34;23.10;40.40
56268;DHT22;42175;46.930;9.532;2023-01-04T09:59:04;23.20;40.50
56268;DHT22;42175;46.930;9.532;2023-01-04T10:01:56;23.10;39.80
56268;DHT22;42175;46.930;9.532;2023-01-04T10:04:46;23.20;39.70
56268;DHT22;42175;46.930;9.532;2023-01-04T10:07:27;23.20;39.90
56268;DHT22;42175;46.930;9.532;2023-01-04T10:09:54;23.20;40.00
56268;DHT22;42175;46.930;9.532;2023-01-04T10:21:36;23.20;40.00
56268;DHT22;42175;46.930;9.532;2023-01-04T10:34:54;23.30;40.00
56268;DHT22;42175;46.930;9.532;2023-01-04T10:37:24;23.20;40.00
56268;DHT22;42175;46.930;9.532;2023-01-04T10:39:56;23.20;40.00
56268;DHT22;42175;46.930;9.532;2023-01-04T10:42:33;23.20;40.00
56268;DHT22;42175;46.930;9.532;2023-01-04T10:48:11;23.20;40.10
56268;DHT22;42175;46.930;9.532;2023-01-04T10:50:53;23.20;40.20
56268;DHT22;42175;46.930;9.532;2023-01-04T10:53:39;23.20;40.20
56268;DHT22;42175;46.930;9.532;2023-01-04T10:56:27;23.20;40.30
56268;DHT22;42175;46.930;9.532;2023-01-04T10:59:09;23.20;40.30
56268;DHT22;42175;46.930;9.532;2023-01-04T11:01:41;23.10;40.40
56268;DHT22;42175;46.930;9.532;2023-01-04T11:04:31;23.10;40.40
56268;DHT22;42175;46.930;9.532;2023-01-04T11:07:14;23.10;40.50
56268;DHT22;42175;46.930;9.532;2023-01-04T11:09:50;23.20;40.70
56268;DHT22;42175;46.930;9.532;2023-01-04T11:12:20;23.30;40.90
56268;DHT22;42175;46.930;9.532;2023-01-04T11:14:47;23.30;40.90
56268;DHT22;42175;46.930;9.532;2023-01-04T11:17:13;23.30;41.00
56268;DHT22;42175;46.930;9.532;2023-01-04T11:19:40;23.40;41.20
56268;DHT22;42175;46.930;9.532;2023-01-04T11:22:44;23.30;41.30
56268;DHT22;42175;46.930;9.532;2023-01-04T11:25:18;23.40;41.40
56268;DHT22;42175;46.930;9.532;2023-01-04T11:27:51;23.40;41.50
56268;DHT22;42175;46.930;9.532;2023-01-04T11:30:24;23.40;41.60
56268;DHT22;42175;46.930;9.532;2023-01-04T11:33:07;23.40;41.60
56268;DHT22;42175;46.930;9.532;2023-01-04T11:35:42;23.40;41.70
56268;DHT22;42175;46.930;9.532;2023-01-04T11:38:22;23.40;41.80
56268;DHT22;42175;46.930;9.532;2023-01-04T11:41:00;23.40;41.80
56268;DHT22;42175;46.930;9.532;2023-01-04T11:43:30;23.40;42.00
56268;DHT22;42175;46.930;9.532;2023-01-04T11:45:58;23.40;42.00
56268;DHT22;42175;46.930;9.532;2023-01-04T11:48:41;23.40;42.00
56268;DHT22;42175;46.930;9.532;2023-01-04T11:51:31;23.40;42.10
56268;DHT22;42175;46.930;9.532;2023-01-04T11:54:02;23.40;42.30
56268;DHT22;42175;46.930;9.532;2023-01-04T11:56:32;23.40;42.40
56268;DHT22;42175;46.930;9.532;2023-01-04T11:59:07;23.40;42.60
56268;DHT22;42175;46.930;9.532;2023-01-04T12:01:39;23.40;42.50
56268;DHT22;42175;46.930;9.532;2023-01-04T12:04:14;23.40;42.30
56268;DHT22;42175;46.930;9.532;2023-01-04T12:06:59;23.30;42.20
56268;DHT22;42175;46.930;9.532;2023-01-04T12:09:28;23.40;42.40
56268;DHT22;42175;46.930;9.532;2023-01-04T12:11:57;23.40;42.50
56268;DHT22;42175;46.930;9.532;2023-01-04T12:17:30;23.40;42.60
56268;DHT22;42175;46.930;9.532;2023-01-04T12:19:48;23.40;42.70
56268;DHT22;42175;46.930;9.532;2023-01-04T12:22:32;23.40;42.70
56268;DHT22;42175;46.930;9.532;2023-01-04T12:25:01;23.20;39.30
56268;DHT22;42175;46.930;9.532;2023-01-04T12:27:27;23.10;38.40
56268;DHT22;42175;46.930;9.532;2023-01-04T12:29:56;23.10;38.50
56268;DHT22;42175;46.930;9.532;2023-01-04T12:34:47;23.20;39.50
56268;DHT22;42175;46.930;9.532;2023-01-04T12:39:57;23.30;40.50
56268;DHT22;42175;46.930;9.532;2023-01-04T12:42:23;23.30;41.50
56268;DHT22;42175;46.930;9.532;2023-01-04T12:50:19;23.30;42.60
56268;DHT22;42175;46.930;9.532;2023-01-04T12:52:55;23.30;44.90
56268;DHT22;42175;46.930;9.532;2023-01-04T12:57:52;23.20;44.40
56268;DHT22;42175;46.930;9.532;2023-01-04T13:00:18;23.20;45.20
56268;DHT22;42175;46.930;9.532;2023-01-04T13:05:40;23.30;45.00
56268;DHT22;42175;46.930;9.532;2023-01-04T13:08:11;23.30;45.50
56268;DHT22;42175;46.930;9.532;2023-01-04T13:13:34;23.30;46.00
56268;DHT22;42175;46.930;9.532;2023-01-04T13:16:21;23.30;46.00
56268;DHT22;42175;46.930;9.532;2023-01-04T13:18:58;23.30;45.90
56268;DHT22;42175;46.930;9.532;2023-01-04T13:23:56;23.30;45.80
56268;DHT22;42175;46.930;9.532;2023-01-04T13:26:42;23.30;45.80
56268;DHT22;42175;46.930;9.532;2023-01-04T13:39:46;23.40;46.20
56268;DHT22;42175;46.930;9.532;2023-01-04T13:42:30;23.40;46.40
56268;DHT22;42175;46.930;9.532;2023-01-04T13:47:51;23.40;45.90
56268;DHT22;42175;46.930;9.532;2023-01-04T13:50:35;23.40;43.40
56268;DHT22;42175;46.930;9.532;2023-01-04T13:53:02;23.20;40.60
56268;DHT22;42175;46.930;9.532;2023-01-04T13:55:31;23.10;39.50
56268;DHT22;42175;46.930;9.532;2023-01-04T13:57:59;23.10;39.60
56268;DHT22;42175;46.930;9.532;2023-01-04T14:00:28;23.20;41.10
56268;DHT22;42175;46.930;9.532;2023-01-04T14:05:47;23.20;44.40
56268;DHT22;42175;46.930;9.532;2023-01-04T14:09:00;23.30;44.90
56268;DHT22;42175;46.930;9.532;2023-01-04T14:11:24;23.30;44.90
56268;DHT22;42175;46.930;9.532;2023-01-04T14:14:29;23.30;45.00
56268;DHT22;42175;46.930;9.532;2023-01-04T14:19:50;23.40;44.60
56268;DHT22;42175;46.930;9.532;2023-01-04T14:24:50;23.30;44.50
56268;DHT22;42175;46.930;9.532;2023-01-04T14:29:54;23.30;45.30
56268;DHT22;42175;46.930;9.532;2023-01-04T14:32:20;23.30;45.10
56268;DHT22;42175;46.930;9.532;2023-01-04T14:34:45;23.30;45.50
56268;DHT22;42175;46.930;9.532;2023-01-04T14:37:14;23.30;45.20
56268;DHT22;42175;46.930;9.532;2023-01-04T14:39:40;23.30;44.70
56268;DHT22;42175;46.930;9.532;2023-01-04T14:42:25;23.30;44.70
56268;DHT22;42175;46.930;9.532;2023-01-04T14:44:51;23.30;44.30
56268;DHT22;42175;46.930;9.532;2023-01-04T14:47:17;23.40;44.30
56268;DHT22;42175;46.930;9.532;2023-01-04T14:49:42;23.40;44.20
56268;DHT22;42175;46.930;9.532;2023-01-04T14:52:11;23.40;44.20
56268;DHT22;42175;46.930;9.532;2023-01-04T14:54:36;23.40;44.20
56268;DHT22;42175;46.930;9.532;2023-01-04T14:57:04;23.30;44.40
56268;DHT22;42175;46.930;9.532;2023-01-04T14:59:29;23.30;45.30
56268;DHT22;42175;46.930;9.532;2023-01-04T15:01:56;23.30;45.30
56268;DHT22;42175;46.930;9.532;2023-01-04T15:04:22;23.30;43.40
56268;DHT22;42175;46.930;9.532;2023-01-04T15:06:58;23.30;43.30
56268;DHT22;42175;46.930;9.532;2023-01-04T15:09:26;23.30;43.70
56268;DHT22;42175;46.930;9.532;2023-01-04T15:11:52;23.30;43.90
56268;DHT22;42175;46.930;9.532;2023-01-04T15:14:17;23.30;43.80
56268;DHT22;42175;46.930;9.532;2023-01-04T15:16:43;23.40;43.80
56268;DHT22;42175;46.930;9.532;2023-01-04T15:19:09;23.40;43.90
56268;DHT22;42175;46.930;9.532;2023-01-04T15:21:35;23.30;43.70
56268;DHT22;42175;46.930;9.532;2023-01-04T15:24:00;23.40;43.90
56268;DHT22;42175;46.930;9.532;2023-01-04T15:26:26;23.40;43.80
56268;DHT22;42175;46.930;9.532;2023-01-04T15:28:52;23.40;43.80
56268;DHT22;42175;46.930;9.532;2023-01-04T15:31:18;23.40;43.80
56268;DHT22;42175;46.930;9.532;2023-01-04T15:33:43;23.40;43.80
56268;DHT22;42175;46.930;9.532;2023-01-04T15:36:14;23.40;43.80
56268;DHT22;42175;46.930;9.532;2023-01-04T15:38:41;23.40;43.80
56268;DHT22;42175;46.930;9.532;2023-01-04T15:41:10;23.40;43.80
56268;DHT22;42175;46.930;9.532;2023-01-04T15:43:57;23.40;43.80
56268;DHT22;42175;46.930;9.532;2023-01-04T15:46:22;23.40;43.80
56268;DHT22;42175;46.930;9.532;2023-01-04T15:48:48;23.40;44.40
56268;DHT22;42175;46.930;9.532;2023-01-04T15:51:14;23.40;43.80
56268;DHT22;42175;46.930;9.532;2023-01-04T15:53:39;23.40;43.80
56268;DHT22;42175;46.930;9.532;2023-01-04T15:56:10;23.40;43.80
56268;DHT22;42175;46.930;9.532;2023-01-04T15:58:37;23.40;43.70
56268;DHT22;42175;46.930;9.532;2023-01-04T16:01:10;23.40;43.70
56268;DHT22;42175;46.930;9.532;2023-01-04T16:03:37;23.40;44.30
56268;DHT22;42175;46.930;9.532;2023-01-04T16:06:07;23.40;43.80
56268;DHT22;42175;46.930;9.532;2023-01-04T16:08:33;23.40;43.80
56268;DHT22;42175;46.930;9.532;2023-01-04T16:11:07;23.40;43.90
56268;DHT22;42175;46.930;9.532;2023-01-04T16:13:33;23.40;43.70
56268;DHT22;42175;46.930;9.532;2023-01-04T16:16:00;23.40;43.80
56268;DHT22;42175;46.930;9.532;2023-01-04T16:18:26;23.40;43.80
56268;DHT22;42175;46.930;9.532;2023-01-04T16:20:51;23.40;43.80
56268;DHT22;42175;46.930;9.532;2023-01-04T16:23:17;23.40;43.70
56268;DHT22;42175;46.930;9.532;2023-01-04T16:25:42;23.40;43.70
56268;DHT22;42175;46.930;9.532;2023-01-04T16:28:08;23.40;43.60
56268;DHT22;42175;46.930;9.532;2023-01-04T16:30:34;23.40;43.80
56268;DHT22;42175;46.930;9.532;2023-01-04T16:33:00;23.40;43.80
56268;DHT22;42175;46.930;9.532;2023-01-04T16:35:26;23.40;43.80
56268;DHT22;42175;46.930;9.532;2023-01-04T16:37:51;23.40;43.90
56268;DHT22;42175;46.930;9.532;2023-01-04T16:40:17;23.30;43.90
56268;DHT22;42175;46.930;9.532;2023-01-04T16:42:43;23.40;43.90
56268;DHT22;42175;46.930;9.532;2023-01-04T16:45:15;23.40;44.00
56268;DHT22;42175;46.930;9.532;2023-01-04T16:47:43;23.40;43.90
56268;DHT22;42175;46.930;9.532;2023-01-04T16:50:11;23.40;44.00
56268;DHT22;42175;46.930;9.532;2023-01-04T16:52:38;23.40;43.90
56268;DHT22;42175;46.930;9.532;2023-01-04T16:55:05;23.40;43.90
56268;DHT22;42175;46.930;9.532;2023-01-04T16:57:31;23.40;44.00
56268;DHT22;42175;46.930;9.532;2023-01-04T16:59:56;23.30;43.80
56268;DHT22;42175;46.930;9.532;2023-01-04T17:02:22;23.40;43.80
56268;DHT22;42175;46.930;9.532;2023-01-04T17:04:48;23.40;43.80
56268;DHT22;42175;46.930;9.532;2023-01-04T17:07:20;23.40;43.70
56268;DHT22;42175;46.930;9.532;2023-01-04T17:09:47;23.40;43.50
56268;DHT22;42175;46.930;9.532;2023-01-04T17:12:14;23.50;43.50
56268;DHT22;42175;46.930;9.532;2023-01-04T17:14:40;23.40;43.40
56268;DHT22;42175;46.930;9.532;2023-01-04T17:17:05;23.50;43.40
56268;DHT22;42175;46.930;9.532;2023-01-04T17:19:31;23.50;43.20
56268;DHT22;42175;46.930;9.532;2023-01-04T17:21:57;23.50;43.10
56268;DHT22;42175;46.930;9.532;2023-01-04T17:24:22;23.60;43.00
56268;DHT22;42175;46.930;9.532;2023-01-04T17:26:49;23.50;42.90
56268;DHT22;42175;46.930;9.532;2023-01-04T17:29:14;23.50;42.70
56268;DHT22;42175;46.930;9.532;2023-01-04T17:31:43;23.50;42.50
56268;DHT22;42175;46.930;9.532;2023-01-04T17:34:11;23.60;42.30
56268;DHT22;42175;46.930;9.532;2023-01-04T17:36:38;23.60;42.00
56268;DHT22;42175;46.930;9.532;2023-01-04T17:39:04;23.50;41.80
56268;DHT22;42175;46.930;9.532;2023-01-04T17:41:31;23.50;41.30
56268;DHT22;42175;46.930;9.532;2023-01-04T17:44:00;23.50;41.30